Time,TemperatureF,DewpointF,PressureIn,WindDirection,WindDirectionDegrees,WindSpeedMPH,WindSpeedGustMPH,Humidity,HourlyPrecipIn,Conditions,Clouds,dailyrainin,SoftwareType,DateUTC
2013-11-27 08:22:00,42.8,41.7,30.63,SSE,158,0.0,2.0,96,0.00,,,0.00,Wunderground v.1.15,2013-11-27 08:22:00,
2013-11-27 08:23:00,42.8,41.7,30.63,ESE,121,0.0,2.0,96,0.00,,,0.00,Wunderground v.1.15,2013-11-27 08:23:00,
2013-11-27 08:25:00,42.8,41.7,30.63,ESE,112,0.0,2.0,96,0.00,,,0.00,Wunderground v.1.15,2013-11-27 08:25:00,
2013-11-27 08:30:00,42.9,41.8,30.63,ESE,104,0.0,2.0,96,0.00,,,0.00,Wunderground v.1.15,2013-11-27 08:30:00,
2013-11-27 08:31:00,42.9,41.8,30.63,NE,46,0.0,2.0,96,0.00,,,0.00,Wunderground v.1.15,2013-11-27 08:31:00,
2013-11-27 08:32:00,43.0,41.9,30.63,NE,51,0.0,2.0,96,0.00,,,0.00,Wunderground v.1.15,2013-11-27 08:32:00,
2013-11-27 08:37:00,43.1,42.0,30.63,ESE,106,1.0,2.0,96,0.00,,,0.00,Wunderground v.1.15,2013-11-27 08:37:00,
2013-11-27 08:39:00,43.1,42.0,30.63,SE,124,0.0,2.0,96,0.00,,,0.00,Wunderground v.1.15,2013-11-27 08:39:00,
2013-11-27 08:44:00,43.2,42.1,30.63,ESE,110,0.0,0.0,96,0.00,,,0.00,Wunderground v.1.15,2013-11-27 08:44:00,
2013-11-27 08:50:00,43.3,42.2,30.63,SSE,148,0.0,0.0,96,0.00,,,0.00,Wunderground v.1.15,2013-11-27 08:50:00,
2013-11-27 08:55:00,43.4,42.3,30.63,ESE,115,0.0,0.0,96,0.00,,,0.00,Wunderground v.1.15,2013-11-27 08:55:00,
2013-11-27 09:00:00,43.5,42.4,30.63,SE,130,0.0,0.0,96,0.00,,,0.00,Wunderground v.1.15,2013-11-27 09:00:00,
2013-11-27 09:06:00,43.5,42.4,30.63,ESE,122,0.0,0.0,96,0.00,,,0.00,Wunderground v.1.15,2013-11-27 09:06:00,
2013-11-27 09:12:00,43.7,42.6,30.63,ESE,102,0.0,0.0,96,0.00,,,0.00,Wunderground v.1.15,2013-11-27 09:12:00,
2013-11-27 09:17:00,43.7,42.6,30.63,ESE,121,0.0,0.0,96,0.00,,,0.00,Wunderground v.1.15,2013-11-27 09:17:00,
2013-11-27 09:22:00,43.8,42.7,30.63,ESE,120,0.0,0.0,96,0.00,,,0.00,Wunderground v.1.15,2013-11-27 09:22:00,
2013-11-27 09:28:00,43.9,42.8,30.63,ESE,122,0.0,0.0,96,0.00,,,0.00,Wunderground v.1.15,2013-11-27 09:28:00,
2013-11-27 09:33:00,44.0,42.9,30.63,ESE,121,0.0,0.0,96,0.00,,,0.00,Wunderground v.1.15,2013-11-27 09:33:00,
2013-11-27 09:39:00,44.2,42.9,30.63,ESE,102,0.0,1.0,95,0.00,,,0.00,Wunderground v.1.15,2013-11-27 09:39:00,
2013-11-27 09:44:00,44.3,43.0,30.63,East,101,0.0,0.0,95,0.00,,,0.00,Wunderground v.1.15,2013-11-27 09:44:00,
2013-11-27 09:50:00,44.5,43.2,30.63,ESE,102,0.0,0.0,95,0.00,,,0.00,Wunderground v.1.15,2013-11-27 09:50:00,
2013-11-27 09:55:00,44.6,43.3,30.63,ENE,75,0.0,0.0,95,0.00,,,0.00,Wunderground v.1.15,2013-11-27 09:55:00,
2013-11-27 10:00:00,44.8,43.5,30.63,East,82,0.0,0.0,95,0.00,,,0.00,Wunderground v.1.15,2013-11-27 10:00:00,
2013-11-27 10:06:00,44.9,43.6,30.63,ENE,78,0.0,1.0,95,0.00,,,0.00,Wunderground v.1.15,2013-11-27 10:06:00,
2013-11-27 10:11:00,45.1,43.8,30.63,ENE,78,0.0,1.0,95,0.00,,,0.00,Wunderground v.1.15,2013-11-27 10:11:00,
2013-11-27 10:17:00,45.3,44.0,30.63,SE,135,0.0,1.0,95,0.00,,,0.00,Wunderground v.1.15,2013-11-27 10:17:00,
2013-11-27 10:22:00,45.4,44.1,30.64,East,84,0.0,1.0,95,0.00,,,0.00,Wunderground v.1.15,2013-11-27 10:22:00,
2013-11-27 10:28:00,45.6,44.3,30.64,East,88,0.0,1.0,95,0.00,,,0.00,Wunderground v.1.15,2013-11-27 10:28:00,
2013-11-27 11:03:00,46.5,44.6,30.63,SE,129,0.0,1.0,93,0.00,,,0.00,Wunderground v.1.15,2013-11-27 11:03:00,
2013-11-27 11:09:00,46.6,44.7,30.63,East,95,0.0,1.0,93,0.00,,,0.00,Wunderground v.1.15,2013-11-27 11:09:00,
2013-11-27 11:14:00,46.7,44.8,30.63,ESE,120,0.0,1.0,93,0.00,,,0.00,Wunderground v.1.15,2013-11-27 11:14:00,
2013-11-27 11:20:00,46.9,44.7,30.63,East,90,0.0,1.0,92,0.00,,,0.00,Wunderground v.1.15,2013-11-27 11:20:00,
2013-11-27 11:25:00,47.0,44.8,30.63,East,90,0.0,1.0,92,0.00,,,0.00,Wunderground v.1.15,2013-11-27 11:25:00,
2013-11-27 11:30:00,47.1,44.9,30.62,ESE,122,0.0,1.0,92,0.00,,,0.00,Wunderground v.1.15,2013-11-27 11:30:00,
2013-11-27 11:36:00,47.2,45.0,30.62,East,97,0.0,2.0,92,0.00,,,0.00,Wunderground v.1.15,2013-11-27 11:36:00,
2013-11-27 11:41:00,47.3,44.8,30.62,SE,127,0.0,1.0,91,0.00,,,0.00,Wunderground v.1.15,2013-11-27 11:41:00,
2013-11-27 11:47:00,47.3,44.8,30.62,ESE,120,0.0,1.0,91,0.00,,,0.00,Wunderground v.1.15,2013-11-27 11:47:00,
2013-11-27 11:52:00,47.4,44.9,30.62,SE,131,0.0,1.0,91,0.00,,,0.00,Wunderground v.1.15,2013-11-27 11:52:00,
2013-11-27 11:58:00,47.6,44.8,30.62,ESE,108,0.0,1.0,90,0.00,,,0.00,Wunderground v.1.15,2013-11-27 11:58:00,
2013-11-27 12:04:00,47.7,44.9,30.62,ESE,104,0.0,1.0,90,0.00,,,0.00,Wunderground v.1.15,2013-11-27 12:04:00,
2013-11-27 12:09:00,47.8,45.0,30.61,East,88,0.0,1.0,90,0.00,,,0.00,Wunderground v.1.15,2013-11-27 12:09:00,
2013-11-27 12:15:00,47.9,45.1,30.61,East,99,0.0,1.0,90,0.00,,,0.00,Wunderground v.1.15,2013-11-27 12:15:00,
2013-11-27 12:20:00,48.0,44.9,30.61,East,92,0.0,1.0,89,0.00,,,0.00,Wunderground v.1.15,2013-11-27 12:20:00,
2013-11-27 12:26:00,48.2,45.1,30.61,East,98,0.0,1.0,89,0.00,,,0.00,Wunderground v.1.15,2013-11-27 12:26:00,
2013-11-27 12:31:00,48.3,45.2,30.61,East,93,0.0,1.0,89,0.00,,,0.00,Wunderground v.1.15,2013-11-27 12:31:00,
2013-11-27 12:36:00,48.4,45.3,30.61,ESE,111,0.0,1.0,89,0.00,,,0.00,Wunderground v.1.15,2013-11-27 12:36:00,
2013-11-27 12:42:00,48.4,45.0,30.61,East,101,0.0,1.0,88,0.00,,,0.00,Wunderground v.1.15,2013-11-27 12:42:00,
2013-11-27 12:47:00,48.5,45.1,30.61,SE,129,0.0,1.0,88,0.00,,,0.00,Wunderground v.1.15,2013-11-27 12:47:00,
2013-11-27 12:53:00,48.6,45.2,30.61,ENE,75,0.0,1.0,88,0.00,,,0.00,Wunderground v.1.15,2013-11-27 12:53:00,
2013-11-27 12:58:00,48.7,45.3,30.61,East,96,0.0,1.0,88,0.00,,,0.00,Wunderground v.1.15,2013-11-27 12:58:00,
2013-11-27 13:04:00,48.7,45.3,30.61,ESE,120,0.0,1.0,88,0.00,,,0.00,Wunderground v.1.15,2013-11-27 13:04:00,
2013-11-27 13:10:00,48.8,45.4,30.61,ESE,113,0.0,1.0,88,0.00,,,0.00,Wunderground v.1.15,2013-11-27 13:10:00,
2013-11-27 13:16:00,48.8,45.4,30.61,ESE,110,0.0,1.0,88,0.00,,,0.00,Wunderground v.1.15,2013-11-27 13:16:00,
2013-11-27 13:22:00,48.8,45.1,30.61,ESE,115,0.0,1.0,87,0.00,,,0.00,Wunderground v.1.15,2013-11-27 13:22:00,
2013-11-27 13:27:00,48.8,45.1,30.61,NE,56,0.0,2.0,87,0.00,,,0.00,Wunderground v.1.15,2013-11-27 13:27:00,
2013-11-27 13:33:00,48.9,45.2,30.61,East,101,0.0,1.0,87,0.00,,,0.00,Wunderground v.1.15,2013-11-27 13:33:00,
2013-11-27 13:38:00,48.9,45.2,30.61,SSE,148,0.0,1.0,87,0.00,,,0.00,Wunderground v.1.15,2013-11-27 13:38:00,
2013-11-27 13:44:00,48.9,45.2,30.60,ENE,78,0.0,1.0,87,0.00,,,0.00,Wunderground v.1.15,2013-11-27 13:44:00,
2013-11-27 13:49:00,48.9,45.2,30.60,East,96,0.0,1.0,87,0.00,,,0.00,Wunderground v.1.15,2013-11-27 13:49:00,
2013-11-27 13:55:00,49.0,45.3,30.60,East,97,0.0,1.0,87,0.00,,,0.00,Wunderground v.1.15,2013-11-27 13:55:00,
2013-11-27 14:00:00,49.1,45.4,30.60,East,97,0.0,1.0,87,0.00,,,0.00,Wunderground v.1.15,2013-11-27 14:00:00,
2013-11-27 14:05:00,49.1,45.4,30.60,ESE,115,0.0,1.0,87,0.00,,,0.00,Wunderground v.1.15,2013-11-27 14:05:00,
2013-11-27 14:11:00,49.1,45.4,30.60,East,88,0.0,1.0,87,0.00,,,0.00,Wunderground v.1.15,2013-11-27 14:11:00,
2013-11-27 14:16:00,49.1,45.4,30.60,East,87,0.0,1.0,87,0.00,,,0.00,Wunderground v.1.15,2013-11-27 14:16:00,
2013-11-27 14:22:00,49.1,45.4,30.60,SE,136,0.0,1.0,87,0.00,,,0.00,Wunderground v.1.15,2013-11-27 14:22:00,
2013-11-27 14:28:00,49.1,45.4,30.60,SE,127,0.0,1.0,87,0.00,,,0.00,Wunderground v.1.15,2013-11-27 14:28:00,
2013-11-27 14:33:00,49.1,45.4,30.60,ESE,115,0.0,1.0,87,0.00,,,0.00,Wunderground v.1.15,2013-11-27 14:33:00,
2013-11-27 14:38:00,49.1,45.4,30.60,ESE,115,0.0,1.0,87,0.00,,,0.00,Wunderground v.1.15,2013-11-27 14:38:00,
2013-11-27 14:43:00,49.1,45.4,30.60,ESE,119,0.0,1.0,87,0.00,,,0.00,Wunderground v.1.15,2013-11-27 14:43:00,
2013-11-27 14:49:00,49.0,45.3,30.60,SE,128,0.0,1.0,87,0.00,,,0.00,Wunderground v.1.15,2013-11-27 14:49:00,
2013-11-27 14:54:00,49.0,45.3,30.60,SE,129,0.0,1.0,87,0.00,,,0.00,Wunderground v.1.15,2013-11-27 14:54:00,
2013-11-27 15:00:00,49.0,45.3,30.60,ESE,115,0.0,1.0,87,0.00,,,0.00,Wunderground v.1.15,2013-11-27 15:00:00,
2013-11-27 15:05:00,49.0,45.3,30.60,ESE,111,0.0,1.0,87,0.00,,,0.00,Wunderground v.1.15,2013-11-27 15:05:00,
2013-11-27 15:11:00,49.0,45.3,30.60,ESE,119,0.0,1.0,87,0.00,,,0.00,Wunderground v.1.15,2013-11-27 15:11:00,
2013-11-27 15:17:00,48.9,45.2,30.60,ESE,119,0.0,1.0,87,0.00,,,0.00,Wunderground v.1.15,2013-11-27 15:17:00,
2013-11-27 15:22:00,48.9,45.2,30.60,ESE,119,0.0,1.0,87,0.00,,,0.00,Wunderground v.1.15,2013-11-27 15:22:00,
2013-11-27 15:28:00,48.9,45.2,30.60,ESE,120,0.0,1.0,87,0.00,,,0.00,Wunderground v.1.15,2013-11-27 15:28:00,
2013-11-27 15:34:00,48.8,45.1,30.60,East,101,0.0,1.0,87,0.00,,,0.00,Wunderground v.1.15,2013-11-27 15:34:00,
2013-11-27 15:40:00,48.8,45.1,30.59,East,101,0.0,1.0,87,0.00,,,0.00,Wunderground v.1.15,2013-11-27 15:40:00,
2013-11-27 15:45:00,48.7,45.3,30.60,ESE,102,0.0,1.0,88,0.00,,,0.00,Wunderground v.1.15,2013-11-27 15:45:00,
2013-11-27 15:50:00,48.7,45.3,30.59,ESE,105,0.0,1.0,88,0.00,,,0.00,Wunderground v.1.15,2013-11-27 15:50:00,
2013-11-27 15:56:00,48.6,45.2,30.60,ESE,105,0.0,1.0,88,0.00,,,0.00,Wunderground v.1.15,2013-11-27 15:56:00,
2013-11-27 16:01:00,48.6,45.2,30.60,ESE,105,0.0,1.0,88,0.00,,,0.00,Wunderground v.1.15,2013-11-27 16:01:00,
2013-11-27 16:06:00,48.5,45.1,30.60,ESE,105,0.0,1.0,88,0.00,,,0.00,Wunderground v.1.15,2013-11-27 16:06:00,
2013-11-27 16:11:00,48.5,45.1,30.60,ESE,105,0.0,1.0,88,0.00,,,0.00,Wunderground v.1.15,2013-11-27 16:11:00,
2013-11-27 16:17:00,48.5,45.1,30.60,ESE,105,0.0,1.0,88,0.00,,,0.00,Wunderground v.1.15,2013-11-27 16:17:00,
2013-11-27 16:22:00,48.4,45.0,30.60,ESE,104,0.0,1.0,88,0.00,,,0.00,Wunderground v.1.15,2013-11-27 16:22:00,
2013-11-27 16:28:00,48.4,45.0,30.60,ESE,105,0.0,1.0,88,0.00,,,0.00,Wunderground v.1.15,2013-11-27 16:28:00,
2013-11-27 16:33:00,48.4,45.0,30.60,ESE,104,0.0,1.0,88,0.00,,,0.00,Wunderground v.1.15,2013-11-27 16:33:00,
2013-11-27 16:39:00,48.4,45.3,30.60,NE,42,0.0,1.0,89,0.00,,,0.00,Wunderground v.1.15,2013-11-27 16:39:00,
2013-11-27 16:45:00,48.3,45.2,30.60,NE,44,0.0,1.0,89,0.00,,,0.00,Wunderground v.1.15,2013-11-27 16:45:00,
2013-11-27 16:51:00,48.3,45.2,30.60,NE,44,0.0,1.0,89,0.00,,,0.00,Wunderground v.1.15,2013-11-27 16:51:00,
2013-11-27 16:57:00,48.3,45.2,30.60,NE,44,0.0,1.0,89,0.00,,,0.00,Wunderground v.1.15,2013-11-27 16:57:00,
2013-11-27 17:02:00,48.3,45.2,30.60,ESE,119,0.0,1.0,89,0.00,,,0.00,Wunderground v.1.15,2013-11-27 17:02:00,
2013-11-27 17:08:00,48.3,45.2,30.60,ESE,119,0.0,1.0,89,0.00,,,0.00,Wunderground v.1.15,2013-11-27 17:08:00,
2013-11-27 17:13:00,48.3,45.2,30.60,ESE,115,0.0,1.0,89,0.00,,,0.00,Wunderground v.1.15,2013-11-27 17:13:00,
2013-11-27 17:19:00,48.3,45.2,30.60,ESE,115,0.0,1.0,89,0.00,,,0.00,Wunderground v.1.15,2013-11-27 17:19:00,
2013-11-27 17:25:00,48.3,45.2,30.60,ESE,115,0.0,1.0,89,0.00,,,0.00,Wunderground v.1.15,2013-11-27 17:25:00,
2013-11-27 17:31:00,48.3,45.2,30.60,East,101,0.0,1.0,89,0.00,,,0.00,Wunderground v.1.15,2013-11-27 17:31:00,
2013-11-27 17:37:00,48.4,45.3,30.60,East,101,0.0,1.0,89,0.00,,,0.00,Wunderground v.1.15,2013-11-27 17:37:00,
2013-11-27 17:43:00,48.4,45.3,30.61,East,101,0.0,1.0,89,0.00,,,0.00,Wunderground v.1.15,2013-11-27 17:43:00,
2013-11-27 17:48:00,48.4,45.3,30.60,East,94,0.0,1.0,89,0.00,,,0.00,Wunderground v.1.15,2013-11-27 17:48:00,
2013-11-27 17:53:00,48.4,45.3,30.61,East,95,0.0,1.0,89,0.00,,,0.00,Wunderground v.1.15,2013-11-27 17:53:00,
2013-11-27 17:59:00,48.5,45.4,30.61,East,97,0.0,1.0,89,0.00,,,0.00,Wunderground v.1.15,2013-11-27 17:59:00,
2013-11-27 18:06:00,48.4,45.3,30.61,East,98,0.0,1.0,89,0.00,,,0.00,Wunderground v.1.15,2013-11-27 18:06:00,
2013-11-27 18:12:00,48.4,45.3,30.61,East,101,0.0,1.0,89,0.00,,,0.00,Wunderground v.1.15,2013-11-27 18:12:00,
2013-11-27 18:18:00,48.4,45.3,30.61,East,101,0.0,1.0,89,0.00,,,0.00,Wunderground v.1.15,2013-11-27 18:18:00,
2013-11-27 18:24:00,48.4,45.3,30.61,East,101,0.0,1.0,89,0.00,,,0.00,Wunderground v.1.15,2013-11-27 18:24:00,
2013-11-27 18:30:00,48.4,45.3,30.61,East,101,0.0,1.0,89,0.00,,,0.00,Wunderground v.1.15,2013-11-27 18:30:00,
2013-11-27 18:36:00,48.3,45.2,30.61,East,101,0.0,1.0,89,0.00,,,0.00,Wunderground v.1.15,2013-11-27 18:36:00,
2013-11-27 18:42:00,48.3,45.2,30.61,East,101,0.0,1.0,89,0.00,,,0.00,Wunderground v.1.15,2013-11-27 18:42:00,
2013-11-27 18:47:00,48.3,45.2,30.61,ESE,105,0.0,1.0,89,0.00,,,0.00,Wunderground v.1.15,2013-11-27 18:47:00,
2013-11-27 18:52:00,48.3,45.2,30.61,ESE,121,0.0,1.0,89,0.00,,,0.00,Wunderground v.1.15,2013-11-27 18:52:00,
2013-11-27 18:57:00,48.3,45.2,30.61,ESE,122,0.0,1.0,89,0.00,,,0.00,Wunderground v.1.15,2013-11-27 18:57:00,
2013-11-27 19:02:00,48.3,45.2,30.61,ESE,122,0.0,1.0,89,0.00,,,0.00,Wunderground v.1.15,2013-11-27 19:02:00,
2013-11-27 19:08:00,48.2,45.1,30.61,East,96,0.0,1.0,89,0.00,,,0.00,Wunderground v.1.15,2013-11-27 19:08:00,
2013-11-27 19:13:00,48.2,45.4,30.61,ESE,105,0.0,1.0,90,0.00,,,0.00,Wunderground v.1.15,2013-11-27 19:13:00,
2013-11-27 19:18:00,48.3,45.5,30.61,SE,129,0.0,1.0,90,0.00,,,0.00,Wunderground v.1.15,2013-11-27 19:18:00,
2013-11-27 19:24:00,48.2,45.4,30.61,ENE,74,0.0,1.0,90,0.00,,,0.00,Wunderground v.1.15,2013-11-27 19:24:00,
2013-11-27 19:29:00,48.2,45.4,30.61,East,80,0.0,1.0,90,0.00,,,0.00,Wunderground v.1.15,2013-11-27 19:29:00,
2013-11-27 19:34:00,48.2,45.4,30.61,ENE,70,0.0,1.0,90,0.00,,,0.00,Wunderground v.1.15,2013-11-27 19:34:00,
2013-11-27 19:39:00,48.3,45.5,30.62,East,97,0.0,1.0,90,0.00,,,0.00,Wunderground v.1.15,2013-11-27 19:39:00,
2013-11-27 19:44:00,48.2,45.4,30.62,East,98,0.0,1.0,90,0.00,,,0.00,Wunderground v.1.15,2013-11-27 19:44:00,
2013-11-27 19:50:00,48.2,45.4,30.62,ENE,60,0.0,1.0,90,0.00,,,0.00,Wunderground v.1.15,2013-11-27 19:50:00,
2013-11-27 19:55:00,48.3,45.5,30.62,ESE,119,0.0,1.0,90,0.00,,,0.00,Wunderground v.1.15,2013-11-27 19:55:00,
2013-11-27 20:00:00,48.2,45.4,30.62,ESE,119,0.0,1.0,90,0.00,,,0.00,Wunderground v.1.15,2013-11-27 20:00:00,
2013-11-27 20:05:00,48.3,45.5,30.62,ESE,118,0.0,1.0,90,0.00,,,0.00,Wunderground v.1.15,2013-11-27 20:05:00,
2013-11-27 20:10:00,48.2,45.4,30.61,ESE,119,0.0,1.0,90,0.00,,,0.00,Wunderground v.1.15,2013-11-27 20:10:00,
2013-11-27 20:16:00,48.2,45.4,30.61,ESE,118,0.0,1.0,90,0.00,,,0.00,Wunderground v.1.15,2013-11-27 20:16:00,
2013-11-27 20:22:00,48.2,45.4,30.61,ESE,119,0.0,1.0,90,0.00,,,0.00,Wunderground v.1.15,2013-11-27 20:22:00,
2013-11-27 20:28:00,48.1,45.3,30.61,ESE,119,0.0,1.0,90,0.00,,,0.00,Wunderground v.1.15,2013-11-27 20:28:00,
2013-11-27 20:33:00,48.1,45.3,30.62,ESE,119,0.0,1.0,90,0.00,,,0.00,Wunderground v.1.15,2013-11-27 20:33:00,
2013-11-27 20:39:00,48.1,45.6,30.62,ESE,119,0.0,1.0,91,0.00,,,0.00,Wunderground v.1.15,2013-11-27 20:39:00,
2013-11-27 20:45:00,48.1,45.6,30.61,ESE,118,0.0,1.0,91,0.00,,,0.00,Wunderground v.1.15,2013-11-27 20:45:00,
2013-11-27 20:51:00,48.1,45.6,30.62,ESE,119,0.0,1.0,91,0.00,,,0.00,Wunderground v.1.15,2013-11-27 20:51:00,
2013-11-27 20:56:00,48.0,45.5,30.61,ESE,119,0.0,1.0,91,0.00,,,0.00,Wunderground v.1.15,2013-11-27 20:56:00,
2013-11-27 21:01:00,48.0,45.5,30.62,ESE,117,0.0,1.0,91,0.00,,,0.00,Wunderground v.1.15,2013-11-27 21:01:00,
2013-11-27 21:07:00,48.0,45.5,30.62,ESE,117,0.0,1.0,91,0.00,,,0.00,Wunderground v.1.15,2013-11-27 21:07:00,
2013-11-27 21:12:00,48.0,45.5,30.62,SE,136,0.0,1.0,91,0.00,,,0.00,Wunderground v.1.15,2013-11-27 21:12:00,
2013-11-27 21:18:00,48.0,45.5,30.62,SE,129,0.0,1.0,91,0.00,,,0.00,Wunderground v.1.15,2013-11-27 21:18:00,
2013-11-27 21:24:00,48.0,45.5,30.62,SE,129,0.0,1.0,91,0.00,,,0.00,Wunderground v.1.15,2013-11-27 21:24:00,
2013-11-27 21:30:00,48.0,45.5,30.62,ESE,103,0.0,0.0,91,0.00,,,0.00,Wunderground v.1.15,2013-11-27 21:30:00,
2013-11-27 21:35:00,48.0,45.5,30.62,ESE,103,0.0,0.0,91,0.00,,,0.00,Wunderground v.1.15,2013-11-27 21:35:00,
2013-11-27 21:40:00,48.0,45.5,30.62,ESE,103,0.0,0.0,91,0.00,,,0.00,Wunderground v.1.15,2013-11-27 21:40:00,
2013-11-27 21:46:00,48.0,45.8,30.62,ESE,113,0.0,0.0,92,0.00,,,0.00,Wunderground v.1.15,2013-11-27 21:46:00,